Estación de San Nicolás

Ultimos registro cada 15 minutos 38
Estación Fecha / Hora Temperatura Humedad Lluvia Velocidad Dirección Radiación Presion
38 San Nicolás 09-05-2026 09:15 5,7 91 0 2,7 247 260 1020
37 San Nicolás 09-05-2026 09:00 5,1 93 0 1,3 250 221 1020
36 San Nicolás 09-05-2026 08:45 4,5 94 0 3,1 271 178 1020,2
35 San Nicolás 09-05-2026 08:30 3,3 95 0 1,8 257 86 1019,7
34 San Nicolás 09-05-2026 08:15 3,3 95 0 1,8 257 86 1019,7
33 San Nicolás 09-05-2026 08:00 3,1 95 0 0,4 257 47 1019,6
32 San Nicolás 09-05-2026 07:45 3,1 94 0 0,9 257 16 1019,6
31 San Nicolás 09-05-2026 07:30 3,1 95 0 1,8 257 0 1019,6
30 San Nicolás 09-05-2026 07:15 3,2 95 0 0 259 0 1019,6
29 San Nicolás 09-05-2026 07:00 3,2 95 0 0 259 0 1019,7
28 San Nicolás 09-05-2026 06:45 3,2 95 0 0,9 259 0 1019,6
27 San Nicolás 09-05-2026 06:30 3,3 94 0 0 259 0 1019,7
26 San Nicolás 09-05-2026 06:15 3,6 95 0 0 259 0 1019,6
25 San Nicolás 09-05-2026 06:00 3,9 95 0 0 259 0 1019,7
24 San Nicolás 09-05-2026 05:45 4 95 0 0,4 259 0 1019,9
23 San Nicolás 09-05-2026 05:30 4,3 95 0 0,4 259 0 1020,1
22 San Nicolás 09-05-2026 05:15 4,4 95 0 1,3 261 0 1020
21 San Nicolás 09-05-2026 05:00 4,4 95 0 0,4 255 0 1020,2
20 San Nicolás 09-05-2026 04:45 4,4 95 0 0,9 255 0 1020,2
19 San Nicolás 09-05-2026 04:30 4,8 94 0 1,3 255 0 1020,2
18 San Nicolás 09-05-2026 04:15 4,9 95 0 0,9 253 0 1020,3
17 San Nicolás 09-05-2026 04:00 5 95 0 0,9 253 0 1020,3
16 San Nicolás 09-05-2026 03:45 5,2 95 0,3 0 253 0 1020,2
15 San Nicolás 09-05-2026 03:30 5,4 94 0 0,4 253 0 1020,3
14 San Nicolás 09-05-2026 03:15 5,7 95 0 0,4 253 0 1020,5
13 San Nicolás 09-05-2026 03:00 5,8 95 0 0,4 253 0 1020,5
12 San Nicolás 09-05-2026 02:45 5,9 94 0 0 249 0 1020,6
11 San Nicolás 09-05-2026 02:30 6,1 94 0 0 250 0 1020,7
10 San Nicolás 09-05-2026 02:15 6,3 94 0 0,4 250 0 1021,1
9 San Nicolás 09-05-2026 02:00 6,7 94 0 0 250 0 1021,1
8 San Nicolás 09-05-2026 01:45 7,2 94 0 0,4 250 0 1021,1
7 San Nicolás 09-05-2026 01:30 7,5 94 0 1,3 245 0 1021
6 San Nicolás 09-05-2026 01:15 7,7 94 0 0,9 234 0 1021,2
5 San Nicolás 09-05-2026 01:00 7,9 94 0 1,3 279 0 1021,2
4 San Nicolás 09-05-2026 00:45 8,2 94 0 1,3 244 0 1021,1
3 San Nicolás 09-05-2026 00:30 8,2 94 0 1,3 259 0 1021
2 San Nicolás 09-05-2026 00:15 8,4 94 0 1,8 258 0 1021,1
1 San Nicolás 09-05-2026 00:00 8,5 94 0 0,4 261 0 1021,2